Lodi, Ohio
Current Conditions -  °F | °C
As of 1:56 PM on Saturday 25 Oct 2014 (Local Time) from KBJJ Reporting Station
Few Clouds Few Clouds  
Wind Chill: 70°   Ceiling: Unl
Heat Index: 70°   Visibility: 10mi
Dew Point: 53°   Wind: 16mph
Humidity: 55%   Direction: 260°W
Pressure: 29.82"   Gusts: 25mph
Location:  41.03°N, 82.01°W
Report Text: KBJJ 251756Z AUTO 26014G22KT 10SM FEW032 21/12 A2982 RMK AO2 SLP095 T02110117 10211 20083 56023 TSNO
Loading
Personal Weather Stations






























Interactive Weather Map
Tropical Storm Tracking
New forecast layout! Learn more

10-Day Weather Forecast

Advertisements
Track Severe Weather on mobile